Time;durP1;ratioP1;P1;durP2;ratioP2;P2;SDS_P1;SDS_P2;PMS_P1;PMS_P2;Temp;Humidity;BMP_temperature;BMP_pressure;BME280_temperature;BME280_humidity;BME280_pressure;Samples;Min_cycle;Max_cycle;Signal;HPM_P1;HPM_P2
2024/01/12 00:01:15;;;;;;;5.67;3.77;;;-2.00;99.90;-0.30;97290.00;;;;5032127;28;20463;-71
2024/01/12 00:04:04;;;;;;;2.93;1.87;;;-2.00;99.90;-0.90;97284.00;;;;5039156;28;20463;-74
2024/01/12 00:06:53;;;;;;;2.73;2.07;;;-2.10;99.90;-0.70;97289.00;;;;5027843;28;20428;-71
2024/01/12 00:09:44;;;;;;;2.03;1.50;;;-2.10;99.90;-0.30;97305.00;;;;5032706;28;20934;-73
2024/01/12 00:12:34;;;;;;;3.87;2.67;;;-2.10;99.90;0.10;97297.00;;;;5037435;28;20435;-73
2024/01/12 00:15:23;;;;;;;2.30;1.67;;;-2.10;99.90;-0.30;97298.00;;;;5038703;28;20440;-71
2024/01/12 00:18:13;;;;;;;6.37;3.97;;;-2.10;99.90;-0.30;97302.00;;;;5035037;28;20436;-72
2024/01/12 00:21:02;;;;;;;2.70;2.00;;;-2.00;99.90;-1.10;97290.00;;;;5035126;28;20416;-74
2024/01/12 00:23:51;;;;;;;2.67;2.03;;;-2.20;99.90;-1.00;97294.00;;;;5035875;28;20800;-73
2024/01/12 00:26:40;;;;;;;3.27;2.30;;;-2.30;99.90;-0.40;97301.00;;;;5039843;28;20945;-71
2024/01/12 00:29:30;;;;;;;2.53;1.80;;;-2.20;99.90;-0.70;97286.00;;;;5031131;28;20957;-74
2024/01/12 00:32:19;;;;;;;4.87;3.40;;;-2.20;99.90;-0.90;97291.00;;;;5029853;28;20795;-72
2024/01/12 00:35:08;;;;;;;4.67;3.03;;;-2.30;99.90;-1.30;97280.00;;;;5031483;28;20463;-73
2024/01/12 00:37:57;;;;;;;3.17;2.23;;;-2.30;99.90;-0.90;97263.00;;;;5041341;28;21139;-71
2024/01/12 00:40:46;;;;;;;3.20;2.33;;;-2.30;99.90;-0.10;97282.00;;;;5031790;28;20829;-72
2024/01/12 00:43:35;;;;;;;5.00;3.20;;;-2.20;99.90;0.30;97275.00;;;;5030403;28;20427;-71
2024/01/12 00:46:27;;;;;;;3.60;2.37;;;-2.10;99.90;0.30;97274.00;;;;5032185;28;20441;-71
2024/01/12 00:49:15;;;;;;;4.73;3.13;;;-2.00;99.90;0.00;97274.00;;;;5027816;28;20826;-71
2024/01/12 00:52:05;;;;;;;3.80;2.40;;;-2.00;99.90;-0.20;97255.00;;;;5035920;28;20435;-72
2024/01/12 00:54:54;;;;;;;3.90;2.63;;;-2.00;99.90;0.10;97272.00;;;;5038632;28;20443;-72
2024/01/12 00:57:43;;;;;;;3.07;2.10;;;-2.00;99.90;0.20;97263.00;;;;5040472;28;20435;-72
2024/01/12 01:00:32;;;;;;;3.83;2.37;;;-2.00;99.90;0.10;97262.00;;;;5037777;28;20420;-72
2024/01/12 01:03:22;;;;;;;4.47;2.97;;;-2.10;99.90;-0.30;97246.00;;;;5035247;28;20924;-72
2024/01/12 01:06:11;;;;;;;5.33;3.33;;;-2.10;99.90;-1.10;97240.00;;;;5031474;28;20468;-71
2024/01/12 01:09:00;;;;;;;3.40;2.30;;;-2.30;99.90;-0.80;97242.00;;;;5033852;28;20453;-72
2024/01/12 01:11:52;;;;;;;3.37;2.30;;;-2.30;99.90;-0.70;97247.00;;;;5045192;28;20429;-73
2024/01/12 01:14:41;;;;;;;3.93;2.80;;;-2.40;99.90;-1.00;97252.00;;;;5037500;28;20465;-74
2024/01/12 01:17:30;;;;;;;3.10;2.37;;;-2.50;99.90;-1.40;97239.00;;;;5035212;28;20514;-72
2024/01/12 01:20:20;;;;;;;3.87;2.90;;;-2.50;99.90;-1.10;97252.00;;;;5033946;28;20431;-69
2024/01/12 01:23:09;;;;;;;4.27;3.03;;;-2.50;99.90;-0.80;97244.00;;;;5036359;28;20428;-72
2024/01/12 01:25:59;;;;;;;2.67;2.07;;;-2.50;99.90;-1.20;97240.00;;;;5031461;28;20475;-74
2024/01/12 01:28:47;;;;;;;2.77;2.13;;;-2.50;99.90;-0.50;97246.00;;;;5037453;28;20444;-70
2024/01/12 01:31:36;;;;;;;5.90;3.87;;;-2.40;99.90;-0.30;97236.00;;;;5033994;28;20807;-71
2024/01/12 01:34:25;;;;;;;6.27;4.03;;;-2.30;99.90;-0.60;97227.00;;;;5034596;28;20424;-75
2024/01/12 01:37:15;;;;;;;3.60;2.60;;;-2.30;99.90;-0.60;97244.00;;;;5041180;28;20427;-73
2024/01/12 01:40:07;;;;;;;2.40;1.83;;;-2.30;99.90;-0.30;97225.00;;;;5029372;28;20987;-73
2024/01/12 01:42:57;;;;;;;3.27;2.27;;;-2.30;99.90;-1.00;97234.00;;;;5032769;28;20431;-74
2024/01/12 01:45:46;;;;;;;2.40;2.03;;;-2.40;99.90;-1.00;97221.00;;;;5033274;28;20487;-70
2024/01/12 01:48:35;;;;;;;3.50;2.63;;;-2.40;99.90;-0.90;97245.00;;;;5033610;28;20435;-71
2024/01/12 01:51:24;;;;;;;2.63;2.07;;;-2.40;99.90;-0.50;97240.00;;;;5036073;28;20948;-72
2024/01/12 01:54:17;;;;;;;3.27;2.67;;;-2.40;99.90;-0.50;97248.00;;;;5033070;28;20431;-72
2024/01/12 01:57:07;;;;;;;3.47;2.70;;;-2.30;99.90;-0.90;97232.00;;;;5034370;28;20948;-73
2024/01/12 01:59:57;;;;;;;2.87;2.23;;;-2.30;99.90;-0.90;97233.00;;;;5037978;28;20439;-71
2024/01/12 02:02:46;;;;;;;2.73;2.17;;;-2.30;99.90;-0.30;97242.00;;;;5033666;28;20437;-71
2024/01/12 02:05:36;;;;;;;4.20;2.97;;;-2.20;99.90;-1.10;97234.00;;;;5030047;28;20875;-73
2024/01/12 02:08:27;;;;;;;2.90;2.10;;;-2.20;99.90;-0.30;97257.00;;;;5034759;28;21020;-73
2024/01/12 02:11:17;;;;;;;3.57;2.67;;;-2.20;99.90;-0.40;97238.00;;;;5037905;28;20439;-71
2024/01/12 02:14:08;;;;;;;3.63;2.57;;;-2.20;99.90;-0.40;97233.00;;;;5031612;28;20447;-71
2024/01/12 02:16:57;;;;;;;3.07;2.10;;;-2.10;99.90;0.20;97237.00;;;;5033883;28;20427;-72
2024/01/12 02:19:46;;;;;;;2.97;2.10;;;-2.00;99.90;0.00;97243.00;;;;5036485;28;20436;-73
2024/01/12 02:22:36;;;;;;;3.63;2.40;;;-2.00;99.90;-0.60;97227.00;;;;5034217;28;20440;-72
2024/01/12 02:25:25;;;;;;;2.77;2.03;;;-1.30;99.90;-0.60;97233.00;;;;5034638;28;20476;-74
2024/01/12 02:28:14;;;;;;;4.80;3.33;;;-2.10;99.90;-0.90;97225.00;;;;5035146;28;20439;-69
2024/01/12 02:31:03;;;;;;;3.13;2.20;;;-2.10;99.90;-0.90;97217.00;;;;5032228;28;20416;-70
2024/01/12 02:33:52;;;;;;;2.23;1.87;;;-2.10;99.90;-1.10;97218.00;;;;5035833;28;21496;-71
2024/01/12 02:36:41;;;;;;;3.40;2.47;;;-2.20;99.90;0.00;97225.00;;;;5034988;28;20432;-71
2024/01/12 02:39:31;;;;;;;2.00;1.53;;;-2.10;99.90;0.30;97234.00;;;;5032178;28;20435;-70
2024/01/12 02:42:20;;;;;;;6.33;4.03;;;-2.00;99.90;-1.00;97222.00;;;;5042844;28;20431;-69
2024/01/12 02:45:10;;;;;;;4.30;2.83;;;-2.00;99.90;-0.30;97220.00;;;;5039326;28;20459;-73
2024/01/12 02:47:59;;;;;;;2.33;1.83;;;-2.10;99.90;0.20;97223.00;;;;5036801;28;20427;-74
2024/01/12 02:50:48;;;;;;;3.17;2.00;;;-2.00;99.90;-0.10;97230.00;;;;5039814;28;20424;-74
2024/01/12 02:53:37;;;;;;;3.27;2.10;;;-2.00;99.90;0.20;97224.00;;;;5034707;28;20427;-74
2024/01/12 02:56:28;;;;;;;2.77;1.90;;;-1.90;99.90;0.40;97231.00;;;;5037155;28;20458;-73
2024/01/12 02:59:17;;;;;;;5.47;3.47;;;-1.90;99.90;0.40;97233.00;;;;5032625;28;20461;-74
2024/01/12 03:02:06;;;;;;;2.93;2.00;;;-1.90;99.90;-0.10;97231.00;;;;5035453;28;20837;-73
2024/01/12 03:04:55;;;;;;;3.13;2.23;;;-1.90;99.90;0.20;97228.00;;;;5041030;28;20443;-72
2024/01/12 03:07:44;;;;;;;3.43;2.43;;;-1.90;99.90;0.30;97253.00;;;;5039819;28;20959;-73
2024/01/12 03:10:32;;;;;;;3.37;2.30;;;-1.80;99.90;0.40;97236.00;;;;5037856;28;20823;-72
2024/01/12 03:13:23;;;;;;;3.53;2.47;;;-1.80;99.90;0.10;97231.00;;;;5037005;28;20446;-74
2024/01/12 03:16:20;;;;;;;5.87;3.67;;;-0.50;99.90;0.00;97233.00;;;;5038859;28;20829;-72
2024/01/12 03:19:08;;;;;;;3.97;2.67;;;-1.80;99.90;0.00;97237.00;;;;5029938;28;20432;-72
2024/01/12 03:21:57;;;;;;;2.83;2.00;;;-1.90;99.90;0.60;97243.00;;;;5039723;28;20495;-72
2024/01/12 03:24:46;;;;;;;2.10;1.60;;;-1.80;99.90;0.00;97247.00;;;;5042718;28;20463;-72
2024/01/12 03:27:35;;;;;;;3.13;2.17;;;-1.70;99.90;0.40;97240.00;;;;5033540;28;20460;-73
2024/01/12 03:30:25;;;;;;;4.33;3.07;;;-1.60;99.90;0.80;97248.00;;;;5038554;28;20446;-73
2024/01/12 03:33:14;;;;;;;4.43;2.80;;;-1.50;99.90;0.90;97247.00;;;;5034772;28;20416;-71
2024/01/12 03:36:08;;;;;;;4.20;2.67;;;-1.40;99.90;1.20;97253.00;;;;5029724;28;20800;-71
2024/01/12 03:38:57;;;;;;;4.30;2.67;;;-1.20;99.90;0.90;97237.00;;;;5036937;28;20948;-69
2024/01/12 03:41:45;;;;;;;3.73;2.40;;;-1.10;99.90;1.70;97263.00;;;;5037039;28;20432;-72
2024/01/12 03:44:34;;;;;;;5.03;3.00;;;-0.90;99.90;2.10;97268.00;;;;5033841;28;20427;-71
2024/01/12 03:47:25;;;;;;;5.07;3.13;;;-0.70;99.90;2.20;97272.00;;;;5033360;28;20458;-70
2024/01/12 03:50:13;;;;;;;6.33;3.57;;;-0.50;99.90;2.10;97269.00;;;;5039526;28;20423;-70
2024/01/12 03:53:02;;;;;;;4.53;2.53;;;-0.40;99.90;1.90;97253.00;;;;5031281;28;20542;-73
2024/01/12 03:55:51;;;;;;;3.73;2.33;;;-0.30;99.90;2.10;97275.00;;;;5039966;28;20455;-71
2024/01/12 03:58:40;;;;;;;4.60;2.70;;;-0.30;99.90;2.40;97277.00;;;;5038125;28;20427;-72
2024/01/12 04:01:29;;;;;;;7.73;3.97;;;-0.20;99.90;2.80;97265.00;;;;5032881;28;20424;-72
2024/01/12 04:04:19;;;;;;;7.00;3.93;;;0.00;99.90;2.50;97271.00;;;;5037152;28;20967;-71
2024/01/12 04:07:08;;;;;;;3.83;2.27;;;0.20;99.90;2.50;97267.00;;;;5039472;28;20517;-71
2024/01/12 04:09:57;;;;;;;3.87;2.40;;;0.20;99.90;2.20;97265.00;;;;5037680;28;20435;-71
2024/01/12 04:12:46;;;;;;;3.13;1.87;;;0.10;99.90;2.20;97267.00;;;;5038085;28;20455;-71
2024/01/12 04:15:35;;;;;;;1.83;1.50;;;0.00;99.90;2.10;97267.00;;;;5031605;28;20448;-73
2024/01/12 04:18:24;;;;;;;4.70;2.97;;;0.00;99.90;1.80;97268.00;;;;5040874;28;20427;-73
2024/01/12 04:21:15;;;;;;;2.97;2.10;;;-0.10;99.90;1.90;97274.00;;;;5039248;28;20424;-73
2024/01/12 04:24:04;;;;;;;2.33;1.43;;;-0.20;99.90;1.70;97274.00;;;;5040263;28;20423;-72
2024/01/12 04:26:52;;;;;;;3.40;2.20;;;-0.30;99.90;1.50;97271.00;;;;5037592;28;20456;-72
2024/01/12 04:29:41;;;;;;;3.97;2.53;;;-0.40;99.90;1.40;97273.00;;;;5038092;28;20432;-72
2024/01/12 04:32:30;;;;;;;4.43;2.57;;;-0.50;99.90;1.60;97280.00;;;;5039816;28;20462;-73
2024/01/12 04:35:19;;;;;;;5.87;3.43;;;-0.50;99.90;1.50;97276.00;;;;5031143;28;20484;-72
2024/01/12 04:38:10;;;;;;;5.77;3.30;;;-0.60;99.90;1.30;97278.00;;;;5039171;28;20932;-72
2024/01/12 04:40:59;;;;;;;3.03;1.87;;;-0.60;99.90;1.00;97288.00;;;;5036533;28;20435;-72
2024/01/12 04:43:48;;;;;;;4.90;3.17;;;-0.80;99.90;1.00;97278.00;;;;5036053;28;20443;-72
2024/01/12 04:46:38;;;;;;;4.10;2.60;;;-0.90;99.90;1.10;97286.00;;;;5037669;28;20460;-73
2024/01/12 04:49:27;;;;;;;2.60;1.83;;;-1.00;99.90;0.70;97290.00;;;;5038770;28;20470;-73
2024/01/12 04:52:16;;;;;;;5.53;3.57;;;-1.10;99.90;0.90;97281.00;;;;5035727;28;20435;-73
2024/01/12 04:55:07;;;;;;;1.90;1.53;;;-1.20;99.90;0.60;97283.00;;;;5036314;28;20994;-72
2024/01/12 04:57:56;;;;;;;3.33;2.33;;;-1.20;99.90;0.70;97288.00;;;;5038202;28;21658;-72
2024/01/12 05:00:45;;;;;;;3.17;2.13;;;-1.30;99.90;0.30;97290.00;;;;5038844;28;20431;-72
2024/01/12 05:03:34;;;;;;;3.27;2.17;;;-1.50;99.90;0.30;97303.00;;;;5036759;28;20435;-72
2024/01/12 05:06:22;;;;;;;4.67;3.17;;;-1.60;99.90;0.20;97293.00;;;;5031627;28;20956;-72
2024/01/12 05:09:11;;;;;;;4.53;3.03;;;-1.70;99.90;-0.20;97302.00;;;;5030638;28;20417;-74
2024/01/12 05:12:04;;;;;;;3.27;2.33;;;-1.80;99.90;0.10;97303.00;;;;5025687;28;21194;-73
2024/01/12 05:14:53;;;;;;;3.53;2.40;;;-1.90;99.90;0.10;97310.00;;;;5026227;28;21000;-73
2024/01/12 05:17:42;;;;;;;3.33;2.33;;;-1.90;99.90;0.00;97306.00;;;;5036549;28;20817;-73
2024/01/12 05:20:31;;;;;;;2.53;1.90;;;-2.00;99.90;0.10;97320.00;;;;5031591;28;20993;-72
2024/01/12 05:23:20;;;;;;;4.57;3.00;;;-2.00;99.90;-0.10;97321.00;;;;5032294;28;20428;-73
2024/01/12 05:26:08;;;;;;;4.00;2.70;;;-2.00;99.90;0.00;97316.00;;;;5032036;28;20836;-72
2024/01/12 05:28:59;;;;;;;2.83;1.87;;;-2.10;99.90;-0.20;97320.00;;;;5035238;28;21010;-73
2024/01/12 05:31:48;;;;;;;2.73;2.23;;;-2.20;99.90;-0.30;97322.00;;;;5034772;28;20437;-73
2024/01/12 05:34:37;;;;;;;3.50;2.60;;;-2.30;99.90;-0.30;97320.00;;;;5033826;28;20460;-72
2024/01/12 05:37:25;;;;;;;3.27;2.60;;;-2.30;99.90;-0.20;97326.00;;;;5035393;28;20427;-73
2024/01/12 05:40:14;;;;;;;3.20;2.40;;;-2.30;99.90;-0.10;97321.00;;;;5025864;28;20520;-72
2024/01/12 05:43:04;;;;;;;5.47;3.87;;;-2.30;99.90;-0.30;97330.00;;;;5023767;28;20945;-72
2024/01/12 05:45:54;;;;;;;2.47;1.83;;;-2.30;99.90;-0.30;97331.00;;;;5036864;28;20448;-73
2024/01/12 05:48:43;;;;;;;4.07;3.03;;;-2.40;99.90;-0.60;97332.00;;;;5026454;28;20473;-72
2024/01/12 05:51:32;;;;;;;4.87;3.43;;;-2.40;99.90;-0.30;97346.00;;;;5027282;28;20428;-72
2024/01/12 05:54:21;;;;;;;6.10;4.33;;;-2.40;99.90;-0.30;97350.00;;;;5028671;28;21008;-72
2024/01/12 05:57:11;;;;;;;4.43;3.13;;;-2.30;99.90;-0.50;97351.00;;;;5031011;28;20438;-72
2024/01/12 06:00:01;;;;;;;2.43;1.90;;;-2.40;99.90;-0.20;97354.00;;;;5024725;28;20444;-72
2024/01/12 06:02:52;;;;;;;3.23;2.60;;;-2.40;99.90;-0.50;97365.00;;;;5025238;28;21248;-73
2024/01/12 06:05:42;;;;;;;2.73;2.03;;;-2.50;99.90;-0.40;97366.00;;;;5022412;28;20827;-72
2024/01/12 06:08:31;;;;;;;3.47;2.60;;;-2.50;99.90;-0.30;97373.00;;;;5024632;28;20472;-72
2024/01/12 06:11:19;;;;;;;4.43;3.23;;;-2.50;99.90;-0.70;97377.00;;;;5027146;28;20421;-72
2024/01/12 06:14:08;;;;;;;2.80;2.07;;;-2.50;99.90;-0.40;97381.00;;;;5025556;28;20463;-73
2024/01/12 06:16:57;;;;;;;2.40;1.87;;;-2.60;99.90;-0.70;97392.00;;;;5034657;28;20425;-74
2024/01/12 06:19:47;;;;;;;2.40;1.97;;;-2.60;99.90;-0.70;97387.00;;;;5028008;28;20424;-74
2024/01/12 06:22:36;;;;;;;3.47;2.70;;;-2.70;99.90;-0.60;97401.00;;;;5027534;28;20444;-74
2024/01/12 06:25:25;;;;;;;3.07;2.70;;;-2.70;99.90;-0.70;97403.00;;;;5025728;28;21066;-74
2024/01/12 06:28:16;;;;;;;5.30;3.90;;;-2.70;99.90;-0.60;97412.00;;;;5012548;28;20491;-74
2024/01/12 06:31:05;;;;;;;2.50;2.13;;;-2.70;99.90;-0.50;97428.00;;;;5033186;28;20434;-73
2024/01/12 06:33:54;;;;;;;2.60;2.17;;;-2.70;99.90;-0.50;97408.00;;;;5029453;28;20450;-74
2024/01/12 06:36:45;;;;;;;3.10;2.33;;;-2.70;99.90;-0.50;97412.00;;;;5026968;28;20493;-73
2024/01/12 06:39:34;;;;;;;2.90;2.37;;;-2.70;99.90;-0.50;97416.00;;;;5023894;28;20440;-73
2024/01/12 06:42:23;;;;;;;5.63;4.17;;;-2.70;99.90;-0.30;97422.00;;;;5020617;28;20948;-72
2024/01/12 06:45:13;;;;;;;5.13;3.43;;;-2.70;99.90;-0.20;97430.00;;;;5022076;28;20460;-73
2024/01/12 06:48:02;;;;;;;3.47;2.57;;;-2.60;99.90;0.00;97424.00;;;;5029773;28;20985;-73
2024/01/12 06:50:51;;;;;;;5.07;3.40;;;-2.50;99.90;-0.20;97432.00;;;;5024052;28;20432;-73
2024/01/12 06:53:41;;;;;;;3.87;2.67;;;-2.40;99.90;-0.10;97445.00;;;;5015658;28;20432;-72
2024/01/12 06:56:30;;;;;;;3.07;2.17;;;-2.40;99.90;0.10;97439.00;;;;5026184;28;20466;-73
2024/01/12 06:59:19;;;;;;;4.10;2.97;;;-2.30;99.90;-1.00;97423.00;;;;5027729;28;20444;-71
2024/01/12 07:02:08;;;;;;;9.47;7.23;;;-2.40;99.90;-0.20;97440.00;;;;5006981;28;20432;-72
2024/01/12 07:04:57;;;;;;;15.90;10.53;;;-2.40;99.90;0.00;97440.00;;;;5006188;28;20465;-73
2024/01/12 07:07:46;;;;;;;12.03;8.23;;;-2.30;99.90;0.20;97438.00;;;;5007576;28;23297;-73
2024/01/12 07:10:36;;;;;;;5.10;3.53;;;-2.30;99.90;0.30;97447.00;;;;5010389;28;20440;-73
2024/01/12 07:13:25;;;;;;;3.50;2.70;;;-2.20;99.90;0.40;97452.00;;;;5016140;28;20428;-72
2024/01/12 07:16:14;;;;;;;17.70;10.97;;;-2.10;99.90;0.50;97444.00;;;;5010049;28;20452;-72
2024/01/12 07:19:03;;;;;;;12.57;8.40;;;-2.10;99.90;0.60;97447.00;;;;5013776;28;20489;-72
2024/01/12 07:21:52;;;;;;;15.80;9.70;;;-2.00;99.90;0.70;97454.00;;;;5006794;28;20522;-72
2024/01/12 07:24:41;;;;;;;11.33;7.20;;;-1.90;99.90;0.80;97461.00;;;;5006292;28;20470;-72
2024/01/12 07:27:31;;;;;;;17.80;10.13;;;-1.80;99.90;0.90;97462.00;;;;5005495;28;20432;-72
2024/01/12 07:30:20;;;;;;;6.20;3.80;;;-1.60;99.90;1.10;97456.00;;;;5026013;28;20811;-72
2024/01/12 07:33:09;;;;;;;3.53;2.20;;;-1.50;99.90;1.10;97456.00;;;;5026084;28;20424;-71
2024/01/12 07:35:58;;;;;;;4.27;2.70;;;-1.40;99.90;1.20;97452.00;;;;5032952;28;20440;-72
2024/01/12 07:38:47;;;;;;;5.23;2.93;;;-1.40;99.90;1.40;97460.00;;;;5038451;28;20428;-71
2024/01/12 07:41:36;;;;;;;5.93;3.50;;;-1.30;99.90;1.60;97458.00;;;;5035208;28;20427;-72
2024/01/12 07:44:26;;;;;;;9.07;4.97;;;-1.10;99.90;1.70;97451.00;;;;5038240;28;20442;-71
2024/01/12 07:47:15;;;;;;;5.37;3.17;;;-1.00;99.90;1.80;97457.00;;;;5035311;28;20434;-71
2024/01/12 07:50:04;;;;;;;4.63;2.67;;;-0.90;99.90;1.90;97458.00;;;;5034045;28;20424;-71
2024/01/12 07:52:53;;;;;;;3.77;2.30;;;-0.80;99.90;1.90;97464.00;;;;5039818;28;20421;-71
2024/01/12 07:55:42;;;;;;;4.50;2.47;;;-0.70;99.90;1.90;97468.00;;;;5033664;28;20960;-73
2024/01/12 07:58:31;;;;;;;3.80;2.23;;;-0.70;99.90;2.00;97472.00;;;;5030497;28;20485;-72
2024/01/12 08:01:22;;;;;;;7.20;4.10;;;-0.60;99.90;2.10;97473.00;;;;5033976;28;20813;-71
2024/01/12 08:04:10;;;;;;;3.40;2.17;;;-0.50;99.90;2.10;97475.00;;;;5037259;28;20427;-72
2024/01/12 08:07:00;;;;;;;3.87;2.23;;;-0.50;99.90;2.40;97468.00;;;;5038405;28;20862;-72
2024/01/12 08:09:49;;;;;;;4.33;2.50;;;-0.40;99.90;2.40;97476.00;;;;5037092;28;20507;-72
2024/01/12 08:12:38;;;;;;;4.77;2.67;;;-0.30;99.90;2.40;97472.00;;;;5037853;28;20424;-73
2024/01/12 08:15:27;;;;;;;4.43;2.83;;;-0.20;99.90;2.60;97470.00;;;;5028769;28;20460;-73
2024/01/12 08:18:18;;;;;;;8.47;4.57;;;-0.10;99.90;2.70;97475.00;;;;5033419;28;20427;-72
2024/01/12 08:21:07;;;;;;;3.73;2.07;;;0.00;99.90;2.80;97489.00;;;;5035435;28;20844;-72
2024/01/12 08:23:56;;;;;;;3.63;2.10;;;0.10;99.90;2.80;97482.00;;;;5033722;28;20424;-73
2024/01/12 08:26:46;;;;;;;4.93;2.67;;;0.10;99.90;3.00;97486.00;;;;5015774;28;20421;-72
2024/01/12 08:29:35;;;;;;;4.33;2.37;;;0.30;99.90;3.10;97491.00;;;;5016540;28;20456;-71
2024/01/12 08:32:24;;;;;;;8.53;4.43;;;0.40;99.90;3.10;97500.00;;;;5015349;28;20438;-72
2024/01/12 08:35:14;;;;;;;7.00;3.57;;;0.40;99.90;3.30;97492.00;;;;5010248;28;20468;-73
2024/01/12 08:38:03;;;;;;;5.90;3.03;;;0.50;99.90;3.30;97496.00;;;;5010869;28;20478;-72
2024/01/12 08:40:52;;;;;;;3.83;2.13;;;0.60;99.90;3.50;97495.00;;;;5019386;28;20433;-71
2024/01/12 08:43:41;;;;;;;6.77;3.57;;;0.70;99.90;3.50;97500.00;;;;5014276;28;21322;-73
2024/01/12 08:46:30;;;;;;;4.73;2.43;;;0.80;99.90;3.50;97515.00;;;;5009191;28;20484;-72
2024/01/12 08:49:18;;;;;;;6.20;3.27;;;0.90;99.90;3.60;97513.00;;;;5012322;28;20461;-72
2024/01/12 08:52:09;;;;;;;5.77;3.00;;;0.90;99.90;3.40;97511.00;;;;5011994;28;20464;-72
2024/01/12 08:54:59;;;;;;;3.77;2.10;;;1.00;99.90;3.70;97525.00;;;;5008154;28;20444;-72
2024/01/12 08:57:48;;;;;;;4.67;2.63;;;1.10;99.90;3.10;97515.00;;;;5009367;28;20437;-73
2024/01/12 09:00:37;;;;;;;4.73;2.67;;;1.10;99.90;3.90;97526.00;;;;5008206;28;20418;-73
2024/01/12 09:03:26;;;;;;;6.87;3.83;;;1.10;99.90;3.90;97534.00;;;;5009077;28;20470;-73
2024/01/12 09:06:15;;;;;;;8.10;4.07;;;1.20;99.90;3.80;97533.00;;;;5008667;28;20445;-73
2024/01/12 09:09:05;;;;;;;3.93;2.33;;;1.20;99.90;4.20;97537.00;;;;5010141;28;20816;-72
2024/01/12 09:11:54;;;;;;;4.07;2.30;;;1.40;99.90;4.30;97536.00;;;;5006962;28;20441;-73
2024/01/12 09:14:44;;;;;;;4.10;2.27;;;1.50;99.90;4.70;97541.00;;;;5009634;28;20453;-73
2024/01/12 09:17:32;;;;;;;3.87;2.20;;;1.60;99.90;4.80;97549.00;;;;5013024;28;20435;-73
2024/01/12 09:20:21;;;;;;;7.43;3.93;;;1.80;99.90;4.40;97550.00;;;;5018252;28;20432;-73
2024/01/12 09:23:10;;;;;;;2.00;1.23;;;1.90;99.90;4.50;97550.00;;;;5008721;28;20212;-73
2024/01/12 09:26:00;;;;;;;5.97;3.00;;;2.00;99.90;4.10;97556.00;;;;5029153;28;20491;-72
2024/01/12 09:28:49;;;;;;;3.70;2.07;;;1.90;99.90;4.60;97556.00;;;;5035697;28;20225;-72
2024/01/12 09:31:38;;;;;;;9.00;4.33;;;2.00;99.90;4.70;97560.00;;;;5030986;28;20466;-72
2024/01/12 09:34:27;;;;;;;10.67;5.43;;;2.00;99.90;4.80;97551.00;;;;5033112;28;20424;-72
2024/01/12 09:37:16;;;;;;;4.30;2.30;;;2.10;99.90;4.80;97563.00;;;;5036133;28;20816;-73
2024/01/12 09:40:06;;;;;;;4.23;2.27;;;2.10;99.90;4.30;97556.00;;;;5037049;28;20416;-72
2024/01/12 09:42:57;;;;;;;4.30;2.23;;;2.10;99.90;4.80;97562.00;;;;5034417;28;20198;-72
2024/01/12 09:45:47;;;;;;;4.63;2.57;;;2.10;99.90;4.70;97556.00;;;;5035711;28;20236;-72
2024/01/12 09:48:37;;;;;;;9.53;4.60;;;2.10;99.90;5.20;97563.00;;;;5028965;28;20209;-72
2024/01/12 09:51:28;;;;;;;9.83;5.00;;;2.20;99.90;5.00;97567.00;;;;5025686;28;20205;-73
2024/01/12 09:54:17;;;;;;;7.93;3.87;;;2.30;99.90;5.00;97561.00;;;;5026749;28;20678;-71
2024/01/12 09:57:07;;;;;;;4.17;2.30;;;2.30;99.90;5.10;97565.00;;;;5029036;28;20202;-73
2024/01/12 09:59:59;;;;;;;5.13;2.73;;;2.40;99.90;5.10;97565.00;;;;5024171;28;20205;-73
2024/01/12 10:02:48;;;;;;;4.97;2.57;;;2.40;99.90;5.50;97549.00;;;;5025301;28;20466;-72
2024/01/12 10:05:37;;;;;;;4.03;2.13;;;2.50;99.90;5.40;97553.00;;;;5028050;28;20225;-72
2024/01/12 10:08:36;;;;;;;5.33;2.77;;;2.70;99.90;5.60;97552.00;;;;5026809;28;20240;-72
2024/01/12 10:11:25;;;;;;;8.00;4.10;;;2.80;99.90;5.90;97536.00;;;;5024537;28;20201;-72
2024/01/12 10:14:21;;;;;;;5.27;2.47;;;2.90;99.90;6.30;97546.00;;;;5026311;28;20201;-72
2024/01/12 10:17:13;;;;;;;3.97;2.13;;;3.20;99.90;6.20;97556.00;;;;5025245;28;20205;-72
2024/01/12 10:20:03;;;;;;;3.93;2.00;;;3.30;99.90;6.20;97541.00;;;;5025731;28;20197;-72
2024/01/12 10:22:57;;;;;;;6.23;3.00;;;3.40;99.90;4.60;97528.00;;;;5026591;28;20585;-72
2024/01/12 10:25:56;;;;;;;5.23;2.70;;;3.30;99.90;4.00;97529.00;;;;5029306;28;20224;-69
2024/01/12 10:28:45;;;;;;;6.17;3.13;;;3.10;99.90;4.00;97530.00;;;;5025873;28;20731;-68
2024/01/12 10:31:41;;;;;;;8.53;4.07;;;2.90;99.90;4.20;97537.00;;;;5028989;28;20205;-70
2024/01/12 10:34:33;;;;;;;11.80;6.00;;;2.70;99.90;4.70;97523.00;;;;5030299;28;20216;-69
2024/01/12 10:37:23;;;;;;;7.03;3.57;;;3.00;99.90;5.40;97524.00;;;;5026064;28;20197;-70
2024/01/12 10:40:15;;;;;;;4.57;2.33;;;3.80;99.90;7.10;97529.00;;;;5023131;28;20228;-70
2024/01/12 10:43:10;;;;;;;5.07;2.60;;;4.90;99.90;8.40;97548.00;;;;5026098;28;20252;-70
2024/01/12 10:46:00;;;;;;;8.23;3.83;;;6.20;99.90;7.60;97541.00;;;;5026932;28;20240;-70
2024/01/12 10:49:03;;;;;;;8.30;3.77;;;7.10;98.30;8.60;97540.00;;;;5026419;28;20206;-69
2024/01/12 10:52:04;;;;;;;6.63;3.13;;;7.50;97.10;9.60;97546.00;;;;5029630;28;20211;-70
2024/01/12 10:55:00;;;;;;;6.73;3.00;;;8.10;97.10;9.90;97548.00;;;;5025060;28;20216;-70
2024/01/12 10:57:49;;;;;;;7.97;3.53;;;8.90;95.00;8.70;97533.00;;;;5030128;28;20587;-69
2024/01/12 11:00:39;;;;;;;6.97;3.20;;;9.30;91.80;8.40;97530.00;;;;5027434;28;20190;-69
2024/01/12 11:03:30;;;;;;;8.63;4.03;;;9.30;91.00;8.10;97527.00;;;;5035236;28;20214;-69
2024/01/12 11:06:22;;;;;;;11.83;5.07;;;9.00;90.80;9.30;97531.00;;;;5028509;28;20232;-69
2024/01/12 11:09:16;;;;;;;8.60;3.83;;;9.20;90.80;8.60;97526.00;;;;5025429;28;20305;-68
2024/01/12 11:12:09;;;;;;;8.60;3.73;;;9.30;89.60;8.30;97533.00;;;;5031908;28;20227;-70
2024/01/12 11:14:58;;;;;;;8.63;3.90;;;8.90;89.70;8.60;97517.00;;;;5028810;28;20221;-70
2024/01/12 11:17:47;;;;;;;9.30;4.07;;;8.80;89.80;10.10;97533.00;;;;5028198;28;20710;-71
2024/01/12 11:20:36;;;;;;;5.67;2.70;;;9.10;89.80;10.40;97534.00;;;;5029351;28;20206;-72
2024/01/12 11:23:25;;;;;;;8.67;4.07;;;9.40;88.80;11.70;97537.00;;;;5032118;28;20212;-71
2024/01/12 11:26:15;;;;;;;9.70;4.77;;;10.20;89.50;11.80;97528.00;;;;5031727;28;20286;-70
2024/01/12 11:29:04;;;;;;;8.10;4.53;;;10.80;86.60;12.20;97533.00;;;;5035492;28;20698;-69
2024/01/12 11:31:54;;;;;;;14.03;6.60;;;11.40;84.80;11.50;97516.00;;;;5028455;28;20209;-71
2024/01/12 11:34:42;;;;;;;7.93;4.30;;;11.50;80.70;10.70;97517.00;;;;5027795;28;20224;-70
2024/01/12 11:37:31;;;;;;;8.00;4.57;;;11.30;79.20;10.20;97513.00;;;;5025787;28;20277;-69
2024/01/12 11:40:21;;;;;;;12.13;5.90;;;11.00;78.60;10.90;97516.00;;;;5028268;28;20198;-69
2024/01/12 11:43:17;;;;;;;9.03;4.47;;;10.90;79.90;10.70;97499.00;;;;5024801;28;20216;-69
2024/01/12 11:46:06;;;;;;;8.40;4.83;;;10.80;78.90;11.30;97509.00;;;;5028686;28;20680;-69
2024/01/12 11:48:58;;;;;;;13.80;6.30;;;10.80;79.10;11.30;97499.00;;;;5025914;28;20213;-69
2024/01/12 11:51:47;;;;;;;7.83;4.70;;;10.70;78.50;11.60;97498.00;;;;5029343;28;20578;-70
2024/01/12 11:54:38;;;;;;;14.87;7.37;;;10.80;79.40;10.30;97477.00;;;;5030652;28;20197;-71
2024/01/12 11:57:27;;;;;;;13.50;6.50;;;10.60;77.50;11.50;97488.00;;;;5033800;28;20200;-71
2024/01/12 12:00:19;;;;;;;15.27;7.20;;;10.50;79.40;11.80;97488.00;;;;5023827;28;20206;-70
2024/01/12 12:03:10;;;;;;;8.40;4.23;;;10.70;79.40;8.90;97470.00;;;;5029128;28;20201;-69
2024/01/12 12:05:59;;;;;;;6.43;3.13;;;10.40;76.20;7.90;97465.00;;;;5032568;28;20232;-69
2024/01/12 12:08:49;;;;;;;10.10;4.40;;;9.20;79.30;9.70;97471.00;;;;5034013;28;20803;-68
2024/01/12 12:11:37;;;;;;;14.47;6.07;;;8.80;82.20;9.80;97470.00;;;;5035165;28;20229;-69
2024/01/12 12:14:26;;;;;;;20.30;8.33;;;8.80;81.70;11.70;97470.00;;;;5035813;28;20197;-68
2024/01/12 12:17:16;;;;;;;11.33;4.73;;;9.10;83.30;10.30;97464.00;;;;5028210;28;20689;-70
2024/01/12 12:20:10;;;;;;;7.20;3.50;;;9.40;81.50;9.60;97458.00;;;;5035789;28;20200;-69
2024/01/12 12:23:00;;;;;;;7.40;3.37;;;9.60;80.80;9.20;97449.00;;;;5025937;28;20682;-69
2024/01/12 12:25:49;;;;;;;11.00;4.67;;;9.10;81.10;7.50;97457.00;;;;5026559;28;20236;-70
2024/01/12 12:28:38;;;;;;;8.43;3.70;;;8.40;81.50;9.50;97459.00;;;;5026194;28;20212;-70
2024/01/12 12:31:30;;;;;;;15.13;6.30;;;8.10;83.50;10.80;97463.00;;;;5025816;28;20228;-70
2024/01/12 12:34:20;;;;;;;17.37;7.00;;;8.30;85.00;11.00;97484.00;;;;5027865;28;20872;-69
2024/01/12 12:37:10;;;;;;;5.40;2.47;;;8.60;84.40;11.30;97477.00;;;;5034547;28;20205;-69
2024/01/12 12:39:59;;;;;;;9.07;4.00;;;8.90;84.80;10.40;97496.00;;;;5030679;28;20206;-69